createdAt,value
2022-09-28T00:00:28.726Z,95.01
2022-09-28T00:02:57.315Z,95.27
2022-09-28T00:05:27.019Z,95.14
2022-09-28T00:07:55.795Z,95.30
2022-09-28T00:10:24.441Z,95.16
2022-09-28T00:12:55.148Z,95.54
2022-09-28T00:15:24.567Z,95.83
2022-09-28T00:17:52.994Z,95.86
2022-09-28T00:20:22.620Z,96.25
2022-09-28T00:22:50.986Z,96.12
2022-09-28T00:25:21.969Z,96.14
2022-09-28T00:27:53.168Z,96.48
2022-09-28T00:30:21.589Z,95.98
2022-09-28T00:32:49.926Z,96.15
2022-09-28T00:35:18.246Z,96.23
2022-09-28T00:37:48.227Z,96.14
2022-09-28T00:40:16.781Z,96.36
2022-09-28T00:42:45.164Z,96.89
2022-09-28T00:45:14.817Z,96.58
2022-09-28T00:47:51.570Z,97.02
2022-09-28T00:50:28.120Z,96.92
2022-09-28T00:53:01.742Z,97.21
2022-09-28T00:55:44.373Z,96.96
2022-09-28T00:58:17.965Z,97.05
2022-09-28T01:00:48.541Z,97.33
2022-09-28T01:03:18.272Z,97.83
2022-09-28T01:05:48.015Z,97.46
2022-09-28T01:08:17.398Z,97.80
2022-09-28T01:10:46.174Z,97.81
2022-09-28T01:13:15.428Z,98.00
2022-09-28T01:15:54.754Z,97.97
2022-09-28T01:18:34.328Z,97.71
2022-09-28T01:21:07.154Z,97.59
2022-09-28T01:24:23.078Z,97.80
2022-09-28T01:27:06.909Z,98.51
2022-09-28T01:29:49.348Z,98.71
2022-09-28T01:32:28.992Z,99.05
2022-09-28T01:35:03.182Z,98.94
2022-09-28T01:37:42.965Z,98.85
2022-09-28T01:40:13.430Z,98.72
2022-09-28T01:42:46.170Z,99.14
2022-09-28T01:45:20.246Z,98.96
2022-09-28T01:47:50.097Z,99.28
2022-09-28T01:50:23.965Z,99.68
2022-09-28T01:52:56.386Z,99.86
2022-09-28T01:55:32.442Z,100.00
2022-09-28T01:58:08.214Z,100.00
2022-09-28T02:00:41.523Z,100.00
2022-09-28T02:03:16.696Z,100.00
2022-09-28T02:05:53.587Z,100.00
2022-09-28T02:08:28.334Z,100.00
2022-09-28T02:11:03.347Z,100.00
2022-09-28T02:13:37.450Z,99.90
2022-09-28T02:16:11.921Z,99.80
2022-09-28T02:18:40.316Z,100.00
2022-09-28T02:21:13.739Z,100.00
2022-09-28T02:23:53.510Z,99.54
2022-09-28T02:26:28.506Z,99.89
2022-09-28T02:28:59.312Z,99.80
2022-09-28T02:31:28.627Z,99.41
2022-09-28T02:33:58.946Z,99.27
2022-09-28T02:36:28.789Z,99.32
2022-09-28T02:38:58.923Z,98.79
2022-09-28T02:41:49.571Z,99.60
2022-09-28T02:44:44.164Z,99.50
2022-09-28T02:47:25.823Z,98.92
2022-09-28T02:50:05.653Z,99.00
2022-09-28T02:53:00.851Z,98.64
2022-09-28T02:55:44.534Z,99.07
2022-09-28T02:58:25.178Z,99.07
2022-09-28T03:01:07.680Z,99.28
2022-09-28T03:03:47.358Z,99.87
2022-09-28T03:06:23.733Z,99.90
2022-09-28T03:09:00.721Z,99.24
2022-09-28T03:11:39.206Z,99.26
2022-09-28T03:14:08.479Z,99.55
2022-09-28T03:16:48.835Z,99.36
2022-09-28T03:19:20.824Z,98.82
2022-09-28T03:21:49.300Z,98.80
2022-09-28T03:24:17.657Z,98.91
2022-09-28T03:26:46.011Z,98.79
2022-09-28T03:29:15.386Z,98.38
2022-09-28T03:31:48.988Z,98.79
2022-09-28T03:34:17.434Z,98.14
2022-09-28T03:36:45.736Z,98.36
2022-09-28T03:39:14.111Z,98.37
2022-09-28T03:41:42.687Z,98.74
2022-09-28T03:44:11.072Z,98.92
2022-09-28T03:46:40.332Z,97.80
2022-09-28T03:49:11.984Z,97.95
2022-09-28T03:51:40.391Z,98.39
2022-09-28T03:54:10.432Z,98.62
2022-09-28T03:56:39.179Z,98.14
2022-09-28T03:59:08.070Z,99.28
2022-09-28T04:01:38.113Z,99.11
2022-09-28T04:04:06.501Z,99.14
2022-09-28T04:06:36.343Z,99.25
2022-09-28T04:09:06.076Z,99.36
2022-09-28T04:11:42.969Z,99.33
2022-09-28T04:14:22.239Z,98.96
2022-09-28T04:16:54.212Z,98.96
2022-09-28T04:19:24.379Z,98.70
2022-09-28T04:22:19.123Z,98.41
2022-09-28T04:24:47.596Z,98.15
2022-09-28T04:27:33.605Z,98.12
2022-09-28T04:30:03.425Z,98.01
2022-09-28T04:32:33.513Z,98.27
2022-09-28T04:35:01.874Z,98.49
2022-09-28T04:37:32.080Z,98.10
2022-09-28T04:40:00.585Z,97.06
2022-09-28T04:42:29.051Z,97.42
2022-09-28T04:44:58.747Z,98.21
2022-09-28T04:47:27.180Z,98.88
2022-09-28T04:49:55.399Z,98.73
2022-09-28T04:52:31.935Z,98.18
2022-09-28T04:55:00.228Z,98.55
2022-09-28T04:57:28.605Z,98.95
2022-09-28T04:59:56.924Z,98.79
2022-09-28T05:02:25.271Z,98.64
2022-09-28T05:05:12.037Z,98.12
2022-09-28T05:08:02.335Z,98.78
2022-09-28T05:10:30.614Z,99.60
2022-09-28T05:12:58.927Z,99.87
2022-09-28T05:15:28.209Z,100.00
2022-09-28T05:17:56.542Z,100.00
2022-09-28T05:20:42.593Z,100.00
2022-09-28T05:23:13.098Z,100.00
2022-09-28T05:25:45.338Z,100.00
2022-09-28T05:28:26.061Z,100.00
2022-09-28T05:31:13.098Z,99.80
2022-09-28T05:34:11.184Z,98.64
2022-09-28T05:36:40.173Z,98.68
2022-09-28T05:39:10.578Z,99.41
2022-09-28T05:41:39.137Z,99.67
2022-09-28T05:44:07.594Z,99.74
2022-09-28T05:46:37.393Z,99.70
2022-09-28T05:49:05.762Z,99.75
2022-09-28T05:51:34.291Z,99.41
2022-09-28T05:54:05.953Z,99.56
2022-09-28T05:56:37.537Z,99.21
2022-09-28T05:59:08.199Z,99.72
2022-09-28T06:01:38.105Z,99.77
2022-09-28T06:04:10.021Z,100.00
2022-09-28T06:06:38.955Z,100.00
2022-09-28T06:09:07.351Z,100.00
2022-09-28T06:11:53.759Z,100.00
2022-09-28T06:14:26.414Z,100.00
2022-09-28T06:16:54.913Z,100.00
2022-09-28T06:19:24.096Z,100.00
2022-09-28T06:22:08.191Z,100.00
2022-09-28T06:24:45.200Z,100.00
2022-09-28T06:27:15.019Z,100.00
2022-09-28T06:29:43.933Z,99.62
2022-09-28T06:32:13.846Z,99.72
2022-09-28T06:34:43.051Z,99.97
2022-09-28T06:37:11.607Z,99.98
2022-09-28T06:39:40.034Z,99.78
2022-09-28T06:42:08.385Z,100.00
2022-09-28T06:44:59.297Z,100.00
2022-09-28T06:47:48.278Z,100.00
2022-09-28T06:50:27.671Z,99.69
2022-09-28T06:53:30.125Z,100.00
2022-09-28T06:56:02.951Z,100.00
2022-09-28T06:58:32.215Z,100.00
2022-09-28T07:01:02.636Z,100.00
2022-09-28T07:03:37.552Z,100.00
2022-09-28T07:06:32.131Z,100.00
2022-09-28T07:09:32.607Z,100.00
2022-09-28T07:12:37.331Z,100.00
2022-09-28T07:15:19.239Z,100.00
2022-09-28T07:17:59.653Z,100.00
2022-09-28T07:20:31.087Z,100.00
2022-09-28T07:23:14.346Z,100.00
2022-09-28T07:26:09.075Z,100.00
2022-09-28T07:29:03.794Z,100.00
2022-09-28T07:31:44.263Z,100.00
2022-09-28T07:34:17.373Z,100.00
2022-09-28T07:36:59.943Z,100.00
2022-09-28T07:39:28.240Z,100.00
2022-09-28T07:41:59.825Z,100.00
2022-09-28T07:44:31.424Z,100.00
2022-09-28T07:47:02.105Z,100.00
2022-09-28T07:49:56.378Z,100.00
2022-09-28T07:52:44.271Z,100.00
2022-09-28T07:55:21.366Z,100.00
2022-09-28T07:58:01.152Z,100.00
2022-09-28T08:00:44.952Z,99.56
2022-09-28T08:03:13.905Z,98.94
2022-09-28T08:05:44.031Z,98.74
2022-09-28T08:08:12.418Z,98.44
2022-09-28T08:10:46.776Z,99.04
2022-09-28T08:13:34.308Z,97.33
2022-09-28T08:16:25.720Z,96.37
2022-09-28T08:19:02.307Z,96.38
2022-09-28T08:21:46.312Z,96.29
2022-09-28T08:24:17.538Z,95.55
2022-09-28T08:26:47.211Z,93.91
2022-09-28T08:29:17.981Z,91.35
2022-09-28T08:31:52.268Z,92.46
2022-09-28T08:34:44.138Z,91.57
2022-09-28T08:37:34.091Z,92.98
2022-09-28T08:40:51.494Z,93.05
2022-09-28T08:43:50.809Z,92.40
2022-09-28T08:46:46.807Z,93.89
2022-09-28T08:49:41.571Z,91.98
2022-09-28T08:52:35.655Z,89.61
2022-09-28T08:55:32.205Z,87.07
2022-09-28T08:58:07.587Z,88.31
2022-09-28T09:00:45.238Z,89.24
2022-09-28T09:03:20.819Z,88.47
2022-09-28T09:06:12.564Z,89.47
2022-09-28T09:09:11.971Z,87.84
2022-09-28T09:11:58.204Z,87.65
2022-09-28T09:15:02.702Z,88.65
2022-09-28T09:17:48.828Z,86.03
2022-09-28T09:20:39.525Z,84.42
2022-09-28T09:23:38.313Z,83.77
2022-09-28T09:26:22.061Z,84.18
2022-09-28T09:29:14.695Z,85.69
2022-09-28T09:32:10.766Z,82.01
2022-09-28T09:35:25.890Z,83.88
2022-09-28T09:38:34.260Z,83.23
2022-09-28T09:42:02.235Z,81.64
2022-09-28T09:45:14.026Z,80.83
2022-09-28T09:47:57.824Z,80.73
2022-09-28T09:50:31.531Z,79.00
2022-09-28T09:53:07.781Z,78.48
2022-09-28T09:55:43.749Z,77.93
2022-09-28T09:58:37.310Z,78.44
2022-09-28T10:01:22.204Z,77.25
2022-09-28T10:04:36.254Z,77.00
2022-09-28T10:07:22.089Z,77.04
2022-09-28T10:09:51.914Z,77.62
2022-09-28T10:12:34.773Z,78.66
2022-09-28T10:15:09.416Z,78.98
2022-09-28T10:17:49.849Z,78.15
2022-09-28T10:20:40.296Z,79.14
2022-09-28T10:23:25.967Z,79.12
2022-09-28T10:26:05.642Z,79.89
2022-09-28T10:28:42.120Z,78.35
2022-09-28T10:31:38.187Z,75.05
2022-09-28T10:34:14.075Z,75.42
2022-09-28T10:36:52.312Z,74.73
2022-09-28T10:39:37.455Z,74.57
2022-09-28T10:42:09.666Z,74.31
2022-09-28T10:44:54.359Z,74.48
2022-09-28T10:47:45.855Z,72.86
2022-09-28T10:50:24.092Z,72.40
2022-09-28T10:53:15.865Z,69.49
2022-09-28T10:56:13.930Z,70.09
2022-09-28T10:58:43.008Z,68.15
2022-09-28T11:01:24.503Z,66.44
2022-09-28T11:03:58.428Z,67.26
2022-09-28T11:06:30.650Z,68.09
2022-09-28T11:09:02.399Z,65.98
2022-09-28T11:11:32.472Z,66.11
2022-09-28T11:14:06.641Z,65.06
2022-09-28T11:16:38.195Z,66.88
2022-09-28T11:19:30.340Z,68.53
2022-09-28T11:21:58.743Z,67.48
2022-09-28T11:24:38.791Z,67.80
2022-09-28T11:27:07.309Z,68.27
2022-09-28T11:29:39.940Z,66.69
2022-09-28T11:32:43.041Z,67.21
2022-09-28T11:35:26.736Z,68.45
2022-09-28T11:38:13.430Z,67.67
2022-09-28T11:41:18.910Z,67.14
2022-09-28T11:44:05.233Z,66.66
2022-09-28T11:46:43.484Z,67.02
2022-09-28T11:49:28.588Z,66.93
2022-09-28T11:52:04.834Z,65.89
2022-09-28T11:54:42.060Z,65.62
2022-09-28T11:57:19.797Z,65.53
2022-09-28T11:59:59.543Z,62.67
2022-09-28T12:02:35.768Z,62.17
2022-09-28T12:05:20.966Z,62.97
2022-09-28T12:07:57.537Z,62.19
2022-09-28T12:10:50.936Z,62.37
2022-09-28T12:13:29.555Z,59.83
2022-09-28T12:16:32.351Z,59.42
2022-09-28T12:18:56.191Z,60.37
2022-09-28T12:21:37.791Z,60.16
2022-09-28T12:24:17.268Z,60.93
2022-09-28T12:26:53.400Z,59.44
2022-09-28T12:29:29.070Z,59.72
2022-09-28T12:32:13.445Z,61.27
2022-09-28T12:34:43.373Z,61.82
2022-09-28T12:37:34.147Z,59.68
2022-09-28T12:40:29.078Z,59.42
2022-09-28T12:43:11.937Z,59.25
2022-09-28T12:46:16.666Z,58.11
2022-09-28T12:50:20.053Z,57.34
2022-09-28T12:52:24.818Z,57.71
2022-09-28T12:55:23.321Z,55.27
2022-09-28T12:58:01.032Z,55.99
2022-09-28T13:00:40.055Z,54.95
2022-09-28T13:03:45.862Z,54.88
2022-09-28T13:06:37.539Z,55.30
2022-09-28T13:09:23.873Z,56.36
2022-09-28T13:12:16.577Z,56.98
2022-09-28T13:15:27.738Z,56.17
2022-09-28T13:18:05.048Z,55.59
2022-09-28T13:20:45.832Z,56.10
2022-09-28T13:23:21.011Z,55.79
2022-09-28T13:25:56.054Z,55.09
2022-09-28T13:28:28.461Z,54.73
2022-09-28T13:33:35.852Z,55.15
2022-09-28T13:36:05.644Z,55.40
2022-09-28T13:38:56.253Z,55.08
2022-09-28T13:41:31.611Z,52.69
2022-09-28T13:44:48.795Z,52.54
2022-09-28T13:47:46.405Z,52.09
2022-09-28T13:50:29.827Z,53.14
2022-09-28T13:53:09.032Z,53.59
2022-09-28T13:55:53.898Z,53.17
2022-09-28T13:58:27.593Z,53.00
2022-09-28T14:01:05.170Z,54.13
2022-09-28T14:03:55.343Z,53.15
2022-09-28T14:06:27.318Z,52.24
2022-09-28T14:09:42.240Z,53.05
2022-09-28T14:12:45.064Z,53.76
2022-09-28T14:15:44.345Z,53.67
2022-09-28T14:18:26.001Z,52.73
2022-09-28T14:21:31.172Z,52.27
2022-09-28T14:24:18.679Z,53.04
2022-09-28T14:27:24.777Z,51.62
2022-09-28T14:29:56.039Z,51.92
2022-09-28T14:32:26.404Z,51.91
2022-09-28T14:35:03.609Z,51.58
2022-09-28T14:37:52.644Z,51.75
2022-09-28T14:40:45.856Z,52.18
2022-09-28T14:43:28.467Z,53.26
2022-09-28T14:46:38.282Z,52.12
2022-09-28T14:49:42.767Z,52.42
2022-09-28T14:52:14.693Z,51.90
2022-09-28T14:54:52.822Z,52.20
2022-09-28T14:57:25.673Z,52.25
2022-09-28T14:59:54.976Z,52.46
2022-09-28T15:02:32.072Z,52.47
2022-09-28T15:05:20.587Z,53.07
2022-09-28T15:07:59.906Z,53.30
2022-09-28T15:10:37.539Z,51.03
2022-09-28T15:13:20.882Z,51.74
2022-09-28T15:15:59.760Z,51.44
2022-09-28T15:19:18.972Z,51.53
2022-09-28T15:21:51.247Z,50.97
2022-09-28T15:24:31.359Z,51.71
2022-09-28T15:27:00.602Z,50.89
2022-09-28T15:29:33.443Z,49.92
2022-09-28T15:32:02.163Z,49.25
2022-09-28T15:34:50.348Z,49.34
2022-09-28T15:37:22.383Z,50.03
2022-09-28T15:39:53.898Z,48.31
2022-09-28T15:42:23.101Z,49.00
2022-09-28T15:45:30.960Z,49.50
2022-09-28T15:48:20.597Z,49.46
2022-09-28T15:51:02.637Z,49.06
2022-09-28T15:53:31.396Z,49.24
2022-09-28T15:56:10.214Z,48.58
2022-09-28T15:58:41.394Z,49.27
2022-09-28T16:01:35.965Z,50.32
2022-09-28T16:04:37.638Z,50.25
2022-09-28T16:07:20.042Z,49.73
2022-09-28T16:10:06.322Z,49.62
2022-09-28T16:12:46.611Z,50.20
2022-09-28T16:15:20.737Z,51.01
2022-09-28T16:17:55.492Z,51.50
2022-09-28T16:20:29.341Z,51.09
2022-09-28T16:23:05.629Z,51.88
2022-09-28T16:25:37.108Z,51.28
2022-09-28T16:28:07.399Z,51.16
2022-09-28T16:30:36.156Z,51.99
2022-09-28T16:33:07.114Z,51.79
2022-09-28T16:35:51.903Z,51.79
2022-09-28T16:38:21.709Z,51.19
2022-09-28T16:40:53.636Z,51.24
2022-09-28T16:43:27.840Z,51.58
2022-09-28T16:45:58.262Z,51.40
2022-09-28T16:48:28.871Z,52.14
2022-09-28T16:50:57.859Z,51.92
2022-09-28T16:53:44.362Z,52.15
2022-09-28T16:56:13.961Z,52.70
2022-09-28T16:58:44.144Z,52.71
2022-09-28T17:01:16.501Z,52.38
2022-09-28T17:03:48.191Z,52.56
2022-09-28T17:06:18.509Z,53.15
2022-09-28T17:08:47.223Z,52.79
2022-09-28T17:11:23.757Z,53.09
2022-09-28T17:13:56.830Z,53.08
2022-09-28T17:16:57.316Z,53.22
2022-09-28T17:19:21.854Z,53.87
2022-09-28T17:21:52.207Z,53.65
2022-09-28T17:24:21.419Z,54.02
2022-09-28T17:26:52.540Z,54.06
2022-09-28T17:29:22.512Z,54.11
2022-09-28T17:31:50.851Z,54.11
2022-09-28T17:34:19.784Z,53.89
2022-09-28T17:36:48.878Z,54.54
2022-09-28T17:39:19.808Z,54.27
2022-09-28T17:41:48.749Z,54.15
2022-09-28T17:44:17.430Z,54.63
2022-09-28T17:46:49.830Z,54.86
2022-09-28T17:49:18.880Z,54.90
2022-09-28T17:51:47.511Z,55.25
2022-09-28T17:54:19.891Z,55.27
2022-09-28T17:56:48.735Z,55.30
2022-09-28T17:59:19.187Z,55.61
2022-09-28T18:01:49.244Z,56.46
2022-09-28T18:04:39.696Z,56.35
2022-09-28T18:07:06.619Z,57.02
2022-09-28T18:09:35.105Z,56.95
2022-09-28T18:12:06.339Z,57.56
2022-09-28T18:14:35.765Z,58.49
2022-09-28T18:17:05.499Z,59.27
2022-09-28T18:19:33.784Z,60.15
2022-09-28T18:22:02.326Z,60.74
2022-09-28T18:24:32.327Z,61.33
2022-09-28T18:27:00.913Z,62.27
2022-09-28T18:29:33.122Z,62.24
2022-09-28T18:32:02.510Z,62.44
2022-09-28T18:34:32.199Z,62.96
2022-09-28T18:37:00.585Z,64.57
2022-09-28T18:39:29.013Z,64.32
2022-09-28T18:41:57.887Z,64.73
2022-09-28T18:44:26.429Z,64.93
2022-09-28T18:46:54.857Z,65.37
2022-09-28T18:49:23.669Z,66.13
2022-09-28T18:51:53.299Z,66.72
2022-09-28T18:54:21.590Z,66.99
2022-09-28T18:56:51.215Z,67.30
2022-09-28T18:59:19.729Z,67.52
2022-09-28T19:01:48.206Z,68.50
2022-09-28T19:04:17.158Z,68.70
2022-09-28T19:06:50.417Z,69.33
2022-09-28T19:09:24.567Z,69.88
2022-09-28T19:11:53.138Z,70.60
2022-09-28T19:14:21.757Z,71.41
2022-09-28T19:16:50.667Z,71.83
2022-09-28T19:19:21.534Z,72.71
2022-09-28T19:21:50.119Z,73.04
2022-09-28T19:24:20.909Z,73.25
2022-09-28T19:26:49.976Z,74.10
2022-09-28T19:29:18.499Z,74.55
2022-09-28T19:31:47.419Z,74.48
2022-09-28T19:34:16.432Z,74.81
2022-09-28T19:36:45.576Z,75.76
2022-09-28T19:39:15.762Z,75.87
2022-09-28T19:41:49.677Z,75.71
2022-09-28T19:44:24.949Z,75.98
2022-09-28T19:46:55.660Z,76.48
2022-09-28T19:49:26.352Z,76.94
2022-09-28T19:52:14.686Z,77.29
2022-09-28T19:54:45.532Z,77.55
2022-09-28T19:57:16.271Z,77.53
2022-09-28T19:59:47.475Z,77.67
2022-09-28T20:02:19.280Z,77.74
2022-09-28T20:04:48.157Z,78.37
2022-09-28T20:07:16.767Z,78.17
2022-09-28T20:09:45.204Z,78.30
2022-09-28T20:12:14.993Z,78.47
2022-09-28T20:14:43.288Z,78.80
2022-09-28T20:17:11.579Z,79.00
2022-09-28T20:19:40.127Z,79.22
2022-09-28T20:22:09.064Z,79.16
2022-09-28T20:24:37.474Z,79.91
2022-09-28T20:27:05.926Z,79.73
2022-09-28T20:29:35.636Z,79.95
2022-09-28T20:32:04.991Z,79.99
2022-09-28T20:34:34.290Z,79.99
2022-09-28T20:37:02.810Z,79.69
2022-09-28T20:39:31.074Z,79.90
2022-09-28T20:41:59.518Z,79.72
2022-09-28T20:44:27.960Z,80.08
2022-09-28T20:46:57.873Z,79.89
2022-09-28T20:49:27.178Z,80.28
2022-09-28T20:51:55.603Z,80.29
2022-09-28T20:54:23.998Z,79.71
2022-09-28T20:56:52.559Z,79.83
2022-09-28T20:59:22.771Z,80.27
2022-09-28T21:01:52.359Z,80.67
2022-09-28T21:04:22.564Z,80.79
2022-09-28T21:06:50.999Z,80.89
2022-09-28T21:09:19.317Z,80.57
2022-09-28T21:11:48.464Z,80.74
2022-09-28T21:14:17.134Z,81.05
2022-09-28T21:16:45.727Z,80.84
2022-09-28T21:19:14.052Z,81.29
2022-09-28T21:21:43.776Z,81.02
2022-09-28T21:24:12.562Z,81.52
2022-09-28T21:26:41.058Z,81.36
2022-09-28T21:29:14.537Z,81.02
2022-09-28T21:31:46.646Z,80.88
2022-09-28T21:34:19.325Z,81.04
2022-09-28T21:36:51.147Z,81.25
2022-09-28T21:39:20.765Z,80.93
2022-09-28T21:41:49.381Z,81.31
2022-09-28T21:44:17.997Z,81.67
2022-09-28T21:46:46.487Z,81.55
2022-09-28T21:49:14.787Z,81.83
2022-09-28T21:51:43.229Z,81.86
2022-09-28T21:54:13.706Z,82.01
2022-09-28T21:56:42.202Z,81.99
2022-09-28T21:59:10.507Z,82.25
2022-09-28T22:01:39.098Z,82.48
2022-09-28T22:04:07.449Z,82.22
2022-09-28T22:06:35.829Z,82.28
2022-09-28T22:09:05.402Z,82.42
2022-09-28T22:11:35.179Z,82.64
2022-09-28T22:14:03.636Z,82.64
2022-09-28T22:16:32.763Z,82.63
2022-09-28T22:19:01.583Z,82.71
2022-09-28T22:21:32.644Z,83.01
2022-09-28T22:24:02.567Z,82.75
2022-09-28T22:26:35.126Z,82.73
2022-09-28T22:29:07.162Z,82.87
2022-09-28T22:31:38.435Z,82.43
2022-09-28T22:34:07.590Z,82.64
2022-09-28T22:36:36.547Z,82.54
2022-09-28T22:39:05.094Z,82.78
2022-09-28T22:41:35.510Z,82.63
2022-09-28T22:44:04.287Z,83.21
2022-09-28T22:46:32.897Z,83.43
2022-09-28T22:49:01.929Z,83.57
2022-09-28T22:51:32.004Z,83.71
2022-09-28T22:54:01.128Z,83.97
2022-09-28T22:56:30.328Z,84.01
2022-09-28T22:59:00.429Z,83.90
2022-09-28T23:01:31.011Z,84.12
2022-09-28T23:04:00.960Z,83.70
2022-09-28T23:06:31.283Z,83.53
2022-09-28T23:09:00.250Z,83.58
2022-09-28T23:11:29.917Z,83.26
2022-09-28T23:14:00.691Z,83.66
2022-09-28T23:16:30.053Z,83.43
2022-09-28T23:18:58.866Z,83.74
2022-09-28T23:21:28.411Z,83.58
2022-09-28T23:24:01.015Z,84.23
2022-09-28T23:26:33.188Z,84.13
2022-09-28T23:29:04.490Z,84.83
2022-09-28T23:31:34.398Z,84.87
2022-09-28T23:34:07.701Z,85.10
2022-09-28T23:36:36.032Z,85.10
2022-09-28T23:39:05.155Z,85.20
2022-09-28T23:41:33.517Z,85.45
2022-09-28T23:44:03.862Z,85.43
2022-09-28T23:46:32.323Z,85.30
2022-09-28T23:49:00.876Z,85.20
2022-09-28T23:51:29.656Z,85.67
2022-09-28T23:53:57.923Z,85.26
2022-09-28T23:56:26.305Z,85.26
2022-09-28T23:58:54.573Z,85.61
